Terminal Aerodrome Forecast
Issued by NWS Paducah, KY

Home | Current Version | Previous Version | Text Only | Print | Product List | Glossary On
Versions: 1 2 3 4 5 6 7 8 9 10 11 12 13 14 15 16 17 18 19 20 21 22 23
548
FTUS43 KPAH 240520
TAFEVV
TAF
KEVV 240520Z 2406/2506 VRB03KT P6SM VCSH BKN060
     FM240700 VRB03KT P6SM SCT050 SCT150
     FM241400 24005KT P6SM SCT025 SCT200
     FM241700 23005KT P6SM SCT040 BKN200
     FM242200 VRB03KT P6SM VCSH SCT040 BKN150 PROB30 2500/2506 -TSRA
      BKN040CB=

USA.gov is the U.S. government's official web portal to all federal, state and local government web resources and services.